Hovedside
METAR-TAF:

METAR-TAF

Lufthavner :

Hammerfest, Norge

Hammerfest lufthavn

breddegrad: 70-40N, lengdegrad: 023-40E, høyde over havet: 8 m

Gjeldene værobservasjon

Denne rapporten ble laget for 34 minutter siden, klokken 13:50 UTC
Vind 6 kt fra Nord-nordøst, skiftende mellom Nord og Øst-nordøst
Temperatur -6°C
Luftfuktighet 68%
Trykk 1023 hPa
Sikt 10 km eller mer
ingen skyer under 1500 m og ingen bygeskyer

METAR: ENHF 221350Z 03006KT 010V070 CAVOK M06/M11 Q1023 RMK WIND 1254FT 14012KT

Tid: 15:24 (14:24 UTC)

Varsel

Denne rapporten ble laget for 3 timer og 24 minutter siden, klokken 11:00 UTC
Varsel gyldig fra 22. klokken 12 UTC til 22. klokken 21 UTC
Vind 5 kt fra skiftende retning
Sikt 10 km eller mer
ingen skyer under 1500 m og ingen bygeskyer
Midlertidig
fra 22. klokken 12 UTC til 22. klokken 21 UTC
Vind 10 kt fra Sør-sørvest med vindkast opp mot 20 kt

TAF: ENHF 221100Z 2212/2221 VRB05KT CAVOK TEMPO 2212/2221 20010G20KT

Værobservasjoner og værvarsel for over 4000 flyplasser (METAR- og TAF-rapporter).

Tilgjengelige stasjoner er representert av de røde og gule prikkene på kartet.

Hold musepekeren over prikken for å se navnet på stasjonen.

Klikk så for å se værobservasjoner og -varsler.

For å forandre kartet kan du klikke på den grønne knappen med svart kryss for å zoome inn, på den grønne knappen med strek for å zoome ut, eller på de grønne pilene for å se tilstøtende kart.


METAR-TAF: